Time;durP1;ratioP1;P1;durP2;ratioP2;P2;SDS_P1;SDS_P2;PMS_P1;PMS_P2;Temp;Humidity;BMP_temperature;BMP_pressure;BME280_temperature;BME280_humidity;BME280_pressure;Samples;Min_cycle;Max_cycle;Signal;HPM_P1;HPM_P2
2022/03/04 00:02:10;;;;;;;17.13;7.17;;;;;;;-145.69;66.96;73028.44;5103553;28;20663;-75
2022/03/04 00:04:37;;;;;;;16.60;7.00;;;;;;;-145.69;68.16;73032.44;5084399;28;20207;-75
2022/03/04 00:07:04;;;;;;;20.03;7.77;;;;;;;-145.69;68.46;73030.44;5073913;28;20242;-75
2022/03/04 00:09:31;;;;;;;19.23;6.67;;;;;;;-145.69;68.37;73030.44;5073799;28;20241;-75
2022/03/04 00:11:58;;;;;;;15.17;6.40;;;;;;;-145.69;69.01;73056.31;5087679;28;20229;-75
2022/03/04 00:14:25;;;;;;;15.83;6.47;;;;;;;-145.69;67.35;73056.31;5114234;28;20225;-75
2022/03/04 00:16:53;;;;;;;19.07;7.30;;;;;;;-145.69;69.58;73080.19;5114279;28;20207;-76
2022/03/04 00:19:21;;;;;;;17.07;6.40;;;;;;;-145.69;70.60;73116.03;5113857;28;20233;-76
2022/03/04 00:21:51;;;;;;;15.27;7.00;;;;;;;-145.69;70.70;73137.94;5114239;28;20228;-76
2022/03/04 00:24:20;;;;;;;14.37;6.30;;;;;;;-145.69;68.94;73122.00;5107018;28;20209;-75
2022/03/04 00:26:47;;;;;;;19.60;6.53;;;;;;;-145.69;70.02;73135.94;5093664;28;20602;-76
2022/03/04 00:29:15;;;;;;;14.77;6.30;;;;;;;-145.69;68.70;73120.00;5093327;28;20209;-75
2022/03/04 00:31:42;;;;;;;19.77;6.50;;;;;;;-145.69;68.07;73129.97;5093551;28;20556;-75
2022/03/04 00:34:09;;;;;;;14.57;7.17;;;;;;;-145.69;68.31;73137.94;5093589;28;20194;-75
2022/03/04 00:36:39;;;;;;;15.60;6.57;;;;;;;-145.69;69.39;73126.00;5110147;28;20197;-75
2022/03/04 00:39:08;;;;;;;11.83;6.03;;;;;;;-145.69;69.25;73171.78;5113478;28;20683;-76
2022/03/04 00:41:34;;;;;;;15.37;6.60;;;;;;;-145.69;69.04;73185.72;5113705;28;20209;-75
2022/03/04 00:44:01;;;;;;;14.37;6.20;;;;;;;-145.69;70.00;73207.59;5113252;28;20656;-75
2022/03/04 00:46:27;;;;;;;15.83;6.93;;;;;;;-145.69;70.20;73231.50;5098650;28;20730;-75
2022/03/04 00:48:54;;;;;;;13.70;6.00;;;;;;;-145.69;70.86;73247.41;5093353;28;20221;-75
2022/03/04 00:51:21;;;;;;;13.77;6.13;;;;;;;-145.69;70.63;73245.44;5093296;28;20209;-76
2022/03/04 00:53:48;;;;;;;17.03;6.40;;;;;;;-145.69;71.04;73245.44;5093167;28;20595;-75
2022/03/04 00:56:15;;;;;;;17.03;6.77;;;;;;;-145.69;71.08;73229.50;5093122;28;20206;-75
2022/03/04 00:58:42;;;;;;;13.50;6.13;;;;;;;-145.69;70.39;73211.59;5108353;28;20679;-75
2022/03/04 01:01:09;;;;;;;17.03;6.70;;;;;;;-145.69;70.34;73225.53;5113436;28;20789;-75
2022/03/04 01:03:36;;;;;;;16.10;6.20;;;;;;;-145.69;70.68;73243.44;5091953;28;20290;-75
2022/03/04 01:06:05;;;;;;;13.93;6.33;;;;;;;-145.69;71.32;73231.50;5072799;28;20689;-75
2022/03/04 01:08:32;;;;;;;12.37;5.87;;;;;;;-145.69;69.66;73233.50;5072986;28;20203;-75
2022/03/04 01:11:00;;;;;;;15.73;6.67;;;;;;;-145.69;69.07;73209.59;5106229;28;20197;-75
2022/03/04 01:13:27;;;;;;;17.13;7.10;;;;;;;-145.69;69.92;73193.66;5113280;28;20750;-75
2022/03/04 01:15:54;;;;;;;16.10;6.93;;;;;;;-145.69;68.16;73177.75;5113200;28;20251;-74
2022/03/04 01:18:21;;;;;;;20.10;7.10;;;;;;;-145.69;66.54;73143.91;5112901;28;20598;-75
2022/03/04 01:20:48;;;;;;;17.50;7.40;;;;;;;-145.69;66.59;73145.91;5112710;28;20268;-75
2022/03/04 01:23:14;;;;;;;15.37;6.53;;;;;;;-145.69;66.32;73137.94;5092642;28;20194;-75
2022/03/04 01:25:41;;;;;;;18.93;7.23;;;;;;;-145.69;64.88;73122.00;5092658;28;20229;-75
2022/03/04 01:28:09;;;;;;;21.02;9.50;;;;;;;-145.69;66.06;73116.03;5091938;28;20441;-75
2022/03/04 01:30:36;;;;;;;17.57;7.77;;;;;;;-145.69;64.51;73118.03;5092814;28;20206;-75
2022/03/04 01:33:03;;;;;;;16.73;7.70;;;;;;;-145.69;65.70;73114.03;5092840;28;20290;-75
2022/03/04 01:35:29;;;;;;;19.13;7.40;;;;;;;-145.69;65.56;73110.06;5072542;28;20234;-75
2022/03/04 01:37:56;;;;;;;18.70;7.47;;;;;;;-145.69;65.92;73118.03;5072134;28;20293;-75
2022/03/04 01:40:23;;;;;;;17.10;7.20;;;;;;;-145.69;66.93;73137.94;5072289;28;20233;-75
2022/03/04 01:42:49;;;;;;;17.63;7.20;;;;;;;-145.69;64.55;73102.09;5072515;28;20233;-75
2022/03/04 01:45:17;;;;;;;17.93;7.67;;;;;;;-145.69;66.74;73141.91;5074253;28;20206;-75
2022/03/04 01:47:44;;;;;;;17.37;7.80;;;;;;;-145.69;68.50;73165.81;5112845;28;20204;-75
2022/03/04 01:50:11;;;;;;;18.93;7.67;;;;;;;-145.69;70.09;73167.78;5112992;28;20244;-75
2022/03/04 01:52:38;;;;;;;20.97;7.63;;;;;;;-145.69;70.99;73173.75;5112868;28;20652;-75
2022/03/04 01:55:08;;;;;;;21.13;7.70;;;;;;;-145.69;69.54;73165.81;5114635;28;20222;-75
2022/03/04 01:57:34;;;;;;;18.67;6.97;;;;;;;-145.69;69.67;73173.75;5111790;28;20286;-75
2022/03/04 02:00:01;;;;;;;17.33;7.37;;;;;;;-145.69;69.24;73167.78;5096461;28;20233;-75
2022/03/04 02:02:29;;;;;;;21.50;8.13;;;;;;;-145.69;69.46;73157.84;5096390;28;20671;-75
2022/03/04 02:04:57;;;;;;;21.83;7.70;;;;;;;-145.69;70.95;73171.78;5096280;28;20561;-75
2022/03/04 02:07:23;;;;;;;20.33;7.67;;;;;;;-145.69;72.54;73179.75;5096551;28;20209;-75
2022/03/04 02:09:50;;;;;;;19.83;8.07;;;;;;;-145.69;72.05;73187.69;5103126;28;20197;-75
2022/03/04 02:12:16;;;;;;;16.37;7.67;;;;;;;-145.69;72.35;73153.84;5116789;28;20208;-75
2022/03/04 02:14:47;;;;;;;24.23;8.33;;;;;;;-145.69;67.47;73108.06;5116335;28;20206;-75
2022/03/04 02:17:13;;;;;;;17.63;7.70;;;;;;;-145.69;65.78;73082.19;5116641;28;20212;-74
2022/03/04 02:19:42;;;;;;;17.03;7.60;;;;;;;-145.69;64.89;73060.28;5116074;27;20244;-75
2022/03/04 02:22:09;;;;;;;19.43;7.90;;;;;;;-145.69;64.37;73066.25;5105352;28;20205;-75
2022/03/04 02:24:36;;;;;;;18.80;8.57;;;;;;;-145.69;63.42;73034.41;5096147;28;20297;-75
2022/03/04 02:27:04;;;;;;;25.33;9.10;;;;;;;-145.69;63.54;73042.38;5095960;28;20201;-75
2022/03/04 02:29:34;;;;;;;21.60;8.60;;;;;;;-145.69;62.00;73032.44;5098364;28;20194;-75
2022/03/04 02:32:01;;;;;;;20.23;8.10;;;;;;;-145.69;62.69;73026.44;5116180;28;20284;-75
2022/03/04 02:34:30;;;;;;;21.70;8.70;;;;;;;-145.69;64.11;73042.38;5116104;28;20652;-75
2022/03/04 02:37:00;;;;;;;25.97;9.33;;;;;;;-145.69;64.38;73040.38;5116314;28;20197;-75
2022/03/04 02:39:28;;;;;;;21.40;8.27;;;;;;;-145.69;64.76;73036.41;5114180;28;20274;-75
2022/03/04 02:41:56;;;;;;;20.53;8.63;;;;;;;-145.69;62.61;72996.59;5096724;28;20195;-74
2022/03/04 02:44:23;;;;;;;24.37;8.97;;;;;;;-145.69;64.33;73012.53;5095450;28;20676;-75
2022/03/04 02:46:49;;;;;;;21.60;8.60;;;;;;;-145.69;66.16;73030.44;5095413;28;20195;-75
2022/03/04 02:49:16;;;;;;;23.33;9.03;;;;;;;-145.69;65.56;73046.34;5095676;28;20725;-75
2022/03/04 02:51:42;;;;;;;26.73;9.07;;;;;;;-145.69;65.78;73050.34;5100263;28;20656;-75
2022/03/04 02:54:09;;;;;;;24.93;9.07;;;;;;;-145.69;64.00;73022.47;5115873;28;20204;-75
2022/03/04 02:56:37;;;;;;;21.30;8.50;;;;;;;-145.69;64.11;73006.53;5115849;28;20228;-74
2022/03/04 02:59:04;;;;;;;23.03;8.97;;;;;;;-145.69;63.25;73000.56;5115586;28;20197;-74
2022/03/04 03:01:30;;;;;;;23.27;9.67;;;;;;;-145.69;64.94;73020.47;5115623;28;20201;-75
2022/03/04 03:04:01;;;;;;;19.80;8.40;;;;;;;-145.69;65.45;73044.38;5097291;28;20260;-75
2022/03/04 03:06:28;;;;;;;28.33;9.40;;;;;;;-145.69;68.22;73082.19;5095460;28;20197;-75
2022/03/04 03:08:54;;;;;;;20.97;8.20;;;;;;;-145.69;67.93;73082.19;5095131;28;20213;-75
2022/03/04 03:11:21;;;;;;;23.10;9.33;;;;;;;-145.69;64.99;73060.28;5095180;28;20202;-75
2022/03/04 03:13:52;;;;;;;22.37;9.03;;;;;;;-145.69;65.70;73060.28;5094946;28;20204;-75
2022/03/04 03:16:18;;;;;;;25.90;9.40;;;;;;;-145.69;68.00;73068.25;5108649;28;20200;-74
2022/03/04 03:18:44;;;;;;;23.43;9.23;;;;;;;-145.69;65.87;73070.25;5114980;28;20229;-74
2022/03/04 03:21:11;;;;;;;22.73;9.10;;;;;;;-145.69;67.42;73084.19;5115316;28;20225;-75
2022/03/04 03:23:40;;;;;;;27.30;10.48;;;;;;;-145.69;67.16;73096.13;5115004;28;20442;-75
2022/03/04 03:26:06;;;;;;;23.23;9.53;;;;;;;-145.69;67.52;73116.03;5114986;28;20197;-75
2022/03/04 03:28:33;;;;;;;25.63;9.73;;;;;;;-145.69;69.00;73116.03;5099135;28;20677;-75
2022/03/04 03:31:03;;;;;;;21.27;9.37;;;;;;;-145.69;68.07;73114.03;5094622;28;20396;-75
2022/03/04 03:33:30;;;;;;;24.83;8.93;;;;;;;-145.69;67.25;73098.13;5094543;28;20202;-75
2022/03/04 03:35:59;;;;;;;24.13;8.93;;;;;;;-145.69;66.52;73086.19;5094492;28;20653;-75
2022/03/04 03:38:25;;;;;;;20.67;8.80;;;;;;;-145.69;65.98;73100.09;5094524;28;20604;-75
2022/03/04 03:40:53;;;;;;;18.93;9.30;;;;;;;-145.69;68.53;73135.94;5109436;28;20225;-75
2022/03/04 03:43:20;;;;;;;20.00;8.73;;;;;;;-145.69;67.79;73137.94;5115070;28;20288;-74
2022/03/04 03:45:46;;;;;;;27.07;8.93;;;;;;;-145.69;68.54;73147.88;5114937;28;20205;-75
2022/03/04 03:48:14;;;;;;;28.87;10.13;;;;;;;-145.69;69.78;73153.84;5114796;27;20204;-75
2022/03/04 03:50:41;;;;;;;23.77;8.87;;;;;;;-145.69;69.74;73157.84;5114676;28;20199;-75
2022/03/04 03:53:08;;;;;;;26.33;9.63;;;;;;;-145.69;68.36;73143.91;5101552;28;20198;-75
2022/03/04 03:55:34;;;;;;;22.70;8.40;;;;;;;-145.69;69.56;73153.84;5094240;28;20206;-75
2022/03/04 03:58:04;;;;;;;28.00;10.23;;;;;;;-145.69;71.11;73185.72;5093843;28;20198;-75
2022/03/04 04:00:31;;;;;;;21.50;9.07;;;;;;;-145.69;71.43;73221.53;5094186;28;20226;-75
2022/03/04 04:02:57;;;;;;;28.53;10.13;;;;;;;-145.69;73.30;73235.47;5094073;28;20202;-75
2022/03/04 04:05:25;;;;;;;29.07;10.20;;;;;;;-145.69;73.80;73265.34;5105894;28;20197;-75
2022/03/04 04:07:52;;;;;;;31.63;10.53;;;;;;;-145.69;74.85;73273.31;5114216;27;20648;-75
2022/03/04 04:10:18;;;;;;;24.03;9.67;;;;;;;-145.69;74.84;73289.22;5114394;28;20197;-75
2022/03/04 04:12:47;;;;;;;24.70;9.53;;;;;;;-145.69;75.10;73283.25;5110534;28;20687;-75
2022/03/04 04:15:14;;;;;;;29.27;11.00;;;;;;;-145.69;76.18;73297.19;5093903;28;20568;-75
2022/03/04 04:17:40;;;;;;;26.57;9.33;;;;;;;-145.69;75.72;73279.28;5093228;28;20203;-75
2022/03/04 04:20:08;;;;;;;24.30;9.87;;;;;;;-145.69;76.44;73303.16;5093588;28;20238;-75
2022/03/04 04:22:36;;;;;;;22.37;9.83;;;;;;;-145.69;77.33;73321.09;5094946;28;20209;-75
2022/03/04 04:25:03;;;;;;;25.87;9.13;;;;;;;-145.69;78.73;73317.09;5114199;28;20646;-75
2022/03/04 04:27:31;;;;;;;31.33;10.27;;;;;;;-145.69;78.15;73335.03;5113693;28;20205;-74
2022/03/04 04:29:57;;;;;;;24.23;10.07;;;;;;;-145.69;79.85;73348.97;5114090;28;20204;-75
2022/03/04 04:32:29;;;;;;;26.53;10.23;;;;;;;-145.69;78.66;73354.94;5114009;28;20204;-75
2022/03/04 04:35:01;;;;;;;28.43;10.87;;;;;;;-145.69;81.36;73364.88;5107811;28;20255;-75
2022/03/04 04:37:29;;;;;;;27.20;9.77;;;;;;;-145.69;79.88;73339.00;5093727;28;20202;-75
2022/03/04 04:39:57;;;;;;;26.50;10.43;;;;;;;-145.69;78.87;73321.09;5093355;28;20284;-75
2022/03/04 04:42:29;;;;;;;32.63;10.07;;;;;;;-145.69;79.19;73337.00;5093539;28;20202;-75
2022/03/04 04:45:00;;;;;;;26.90;9.97;;;;;;;-145.69;79.71;73309.13;5093258;28;20672;-75
2022/03/04 04:47:26;;;;;;;25.93;10.23;;;;;;;-145.69;79.80;73337.00;5105074;28;20781;-75
2022/03/04 04:49:54;;;;;;;26.93;10.23;;;;;;;-145.69;80.83;73329.03;5113768;28;20292;-75
2022/03/04 04:52:21;;;;;;;25.13;9.73;;;;;;;-145.69;80.42;73327.06;5113661;28;20201;-75
2022/03/04 04:54:53;;;;;;;27.60;11.07;;;;;;;-145.69;82.11;73352.94;5113414;28;20662;-75
2022/03/04 04:57:31;;;;;;;29.90;10.77;;;;;;;-145.69;81.32;73348.97;5083231;28;20214;-75
2022/03/04 04:59:57;;;;;;;27.10;10.53;;;;;;;-145.69;80.76;73323.06;5106803;28;20217;-75
2022/03/04 05:02:27;;;;;;;26.60;11.47;;;;;;;-145.69;80.94;73329.03;5113401;28;20560;-75
2022/03/04 05:05:06;;;;;;;28.80;10.97;;;;;;;-145.69;81.08;73321.09;5113608;28;20202;-75
2022/03/04 05:07:34;;;;;;;26.27;10.00;;;;;;;-145.69;77.67;73301.19;5113519;28;20200;-75
2022/03/04 05:10:04;;;;;;;29.57;10.30;;;;;;;-145.69;79.26;73307.16;5111879;28;20599;-75
2022/03/04 05:12:35;;;;;;;36.03;10.93;;;;;;;-145.69;80.16;73317.09;5092932;28;20277;-75
2022/03/04 05:15:07;;;;;;;30.73;11.37;;;;;;;-145.69;80.74;73319.09;5092825;28;20201;-75
2022/03/04 05:17:33;;;;;;;26.07;10.13;;;;;;;-145.69;79.88;73323.06;5093119;28;20205;-74
2022/03/04 05:20:00;;;;;;;28.47;10.10;;;;;;;-145.69;81.20;73333.03;5092704;28;20693;-75
2022/03/04 05:22:34;;;;;;;28.93;10.70;;;;;;;-145.69;81.86;73337.00;5098872;28;20270;-74
2022/03/04 05:25:03;;;;;;;30.47;11.63;;;;;;;-145.69;78.79;73287.25;5113274;28;20201;-75
2022/03/04 05:27:32;;;;;;;23.87;9.87;;;;;;;-145.69;78.41;73305.16;5113259;28;20201;-75
2022/03/04 05:30:00;;;;;;;29.73;11.13;;;;;;;-145.69;80.79;73325.06;5114633;28;20204;-75
2022/03/04 05:32:26;;;;;;;28.13;12.00;;;;;;;-145.69;77.76;73291.22;5117649;28;20201;-75
2022/03/04 05:34:53;;;;;;;26.23;11.10;;;;;;;-145.69;76.65;73277.28;5105436;27;20190;-75
2022/03/04 05:37:19;;;;;;;27.53;10.57;;;;;;;-145.69;77.17;73297.19;5096879;28;20229;-75
2022/03/04 05:39:48;;;;;;;25.27;10.60;;;;;;;-145.69;77.48;73305.16;5096584;28;20595;-75
2022/03/04 05:42:14;;;;;;;24.60;10.70;;;;;;;-145.69;78.87;73329.03;5096744;28;20569;-75
2022/03/04 05:44:53;;;;;;;33.60;10.30;;;;;;;-145.69;79.51;73352.94;5096931;28;20221;-75
2022/03/04 05:47:20;;;;;;;27.13;10.07;;;;;;;-145.69;79.92;73341.00;5110128;28;20888;-75
2022/03/04 05:49:47;;;;;;;31.87;10.63;;;;;;;-145.69;78.60;73325.06;5116996;28;20201;-76
2022/03/04 05:52:16;;;;;;;29.50;10.50;;;;;;;-145.69;79.51;73356.91;5116941;28;20758;-75
2022/03/04 05:54:45;;;;;;;28.93;10.40;;;;;;;-145.69;79.12;73331.03;5116933;28;20652;-75
2022/03/04 05:57:12;;;;;;;27.40;10.53;;;;;;;-145.69;79.44;73346.97;5117178;28;20197;-76
2022/03/04 05:59:38;;;;;;;38.30;10.37;;;;;;;-145.69;78.11;73341.00;5101825;27;20198;-75
2022/03/04 06:02:14;;;;;;;24.17;9.90;;;;;;;-145.69;78.13;73337.00;5096338;28;20225;-75
2022/03/04 06:04:47;;;;;;;32.80;10.00;;;;;;;-145.69;78.23;73346.97;5096412;28;20675;-76
2022/03/04 06:07:16;;;;;;;31.40;10.03;;;;;;;-145.69;78.36;73352.94;5096041;28;20205;-76
2022/03/04 06:09:45;;;;;;;33.73;11.07;;;;;;;-145.69;77.63;73354.94;5096483;28;20198;-76
2022/03/04 06:12:11;;;;;;;24.20;10.03;;;;;;;-145.69;78.61;73384.78;5112814;28;20206;-75
2022/03/04 06:14:44;;;;;;;29.30;10.20;;;;;;;-145.69;79.44;73398.72;5116483;28;20666;-75
2022/03/04 06:17:13;;;;;;;30.33;10.63;;;;;;;-145.69;80.10;73408.69;5116567;28;20202;-76
2022/03/04 06:19:41;;;;;;;32.87;10.50;;;;;;;-145.69;79.47;73416.66;5116304;28;20237;-76
2022/03/04 06:22:18;;;;;;;30.63;10.67;;;;;;;-145.69;79.80;73422.63;5116169;28;20289;-75
2022/03/04 06:24:44;;;;;;;27.23;10.90;;;;;;;-145.69;80.76;73428.59;5075838;28;20201;-74
2022/03/04 06:27:21;;;;;;;27.67;10.90;;;;;;;-145.69;82.01;73414.66;5075606;28;20202;-75
2022/03/04 06:29:52;;;;;;;30.97;10.37;;;;;;;-145.69;79.93;73376.81;5075637;28;20199;-75
2022/03/04 06:32:18;;;;;;;31.57;11.00;;;;;;;-145.69;83.59;73384.78;5075640;28;20206;-76
2022/03/04 06:34:57;;;;;;;29.83;10.80;;;;;;;-145.69;84.85;73396.72;5077435;28;20224;-76
2022/03/04 06:37:31;;;;;;;31.53;11.97;;;;;;;-145.69;86.56;73404.69;5116269;28;20247;-75
2022/03/04 06:39:57;;;;;;;26.53;10.57;;;;;;;-145.69;83.48;73386.78;5115805;28;20198;-75
2022/03/04 06:42:28;;;;;;;28.33;11.40;;;;;;;-145.69;83.41;73390.75;5115172;28;20691;-75
2022/03/04 06:44:54;;;;;;;27.87;10.67;;;;;;;-145.69;81.67;73364.88;5116065;28;20284;-76
2022/03/04 06:47:21;;;;;;;26.70;9.53;;;;;;;-145.69;81.10;73364.88;5110663;27;20190;-75
2022/03/04 06:49:50;;;;;;;33.27;12.43;;;;;;;-145.69;81.28;73372.84;5095436;28;20657;-75
2022/03/04 06:52:17;;;;;;;32.70;10.77;;;;;;;-145.69;82.32;73386.78;5079719;28;20203;-75
2022/03/04 06:54:44;;;;;;;33.37;10.70;;;;;;;-145.69;83.46;73400.72;5075369;28;20252;-75
2022/03/04 06:57:11;;;;;;;31.53;10.77;;;;;;;-145.69;82.40;73416.66;5075271;28;20600;-75
2022/03/04 06:59:37;;;;;;;25.47;10.77;;;;;;;-145.69;82.73;73420.63;5089848;28;20204;-76
2022/03/04 07:02:06;;;;;;;27.23;10.90;;;;;;;-145.69;82.53;73410.66;5115729;28;20229;-76
2022/03/04 07:04:33;;;;;;;24.67;10.13;;;;;;;-145.69;80.51;73390.75;5115616;28;20205;-75
2022/03/04 07:06:59;;;;;;;33.10;10.77;;;;;;;-145.69;79.19;73360.91;5115581;28;20598;-76
2022/03/04 07:09:27;;;;;;;32.80;10.53;;;;;;;-145.69;79.90;73341.00;5115675;28;20590;-75
2022/03/04 07:11:57;;;;;;;33.13;11.03;;;;;;;-145.69;80.91;73313.13;5108831;28;20209;-76
2022/03/04 07:14:30;;;;;;;28.93;9.70;;;;;;;-145.69;74.14;73265.34;5095239;28;20288;-75
2022/03/04 07:16:59;;;;;;;24.53;9.27;;;;;;;-145.69;72.61;73245.44;5094979;28;20201;-76
2022/03/04 07:19:33;;;;;;;33.05;13.25;;;;;;;-145.69;72.86;73239.47;5093471;28;20455;-76
2022/03/04 07:22:03;;;;;;;31.07;10.80;;;;;;;-145.69;69.91;73213.56;5094832;28;20695;-76
2022/03/04 07:24:32;;;;;;;24.30;10.07;;;;;;;-145.69;66.36;73165.81;5104887;28;20202;-76
2022/03/04 07:27:00;;;;;;;27.73;10.40;;;;;;;-145.69;65.06;73133.94;5115150;27;20201;-76
2022/03/04 07:29:28;;;;;;;26.13;10.03;;;;;;;-145.69;64.21;73135.94;5114984;27;20552;-76
2022/03/04 07:32:03;;;;;;;28.17;10.63;;;;;;;-145.69;65.59;73137.94;5114873;27;20596;-76
2022/03/04 07:34:29;;;;;;;30.57;10.03;;;;;;;-145.69;64.57;73122.00;5115477;28;20197;-76
2022/03/04 07:36:56;;;;;;;27.57;10.23;;;;;;;-145.69;63.53;73122.00;5103141;28;20198;-76
2022/03/04 07:39:23;;;;;;;29.13;9.97;;;;;;;-145.69;60.76;73088.16;5094779;28;20194;-76
2022/03/04 07:41:50;;;;;;;30.90;11.50;;;;;;;-145.69;60.56;73072.25;5094662;28;20584;-76
2022/03/04 07:44:21;;;;;;;30.80;11.40;;;;;;;-145.69;60.41;73062.28;5094678;28;20241;-76
2022/03/04 07:46:48;;;;;;;32.60;11.90;;;;;;;-145.69;58.59;73038.41;5094632;28;20206;-76
2022/03/04 07:49:18;;;;;;;33.13;11.20;;;;;;;-145.69;58.10;73018.50;5110464;28;20197;-76
2022/03/04 07:51:45;;;;;;;29.53;10.80;;;;;;;-145.69;58.38;73006.53;5114730;28;20198;-76
2022/03/04 07:54:14;;;;;;;33.00;10.33;;;;;;;-145.69;58.09;72978.69;5114395;28;20197;-76
2022/03/04 07:56:41;;;;;;;25.63;9.73;;;;;;;-145.69;55.72;72946.81;5114712;28;20198;-76
2022/03/04 07:59:08;;;;;;;27.23;9.90;;;;;;;-145.69;53.95;72918.97;5114553;28;20288;-76
2022/03/04 08:01:38;;;;;;;24.73;10.20;;;;;;;-145.69;53.54;72893.09;5095752;28;20573;-77
2022/03/04 08:04:08;;;;;;;35.47;12.57;;;;;;;-145.69;52.06;72885.13;5094503;28;20194;-77
2022/03/04 08:06:41;;;;;;;32.23;11.43;;;;;;;-145.69;51.12;72871.19;5094367;28;20202;-77
2022/03/04 08:09:13;;;;;;;27.13;10.93;;;;;;;-145.69;52.39;72855.25;5093875;28;20213;-77
2022/03/04 08:11:40;;;;;;;28.83;10.50;;;;;;;-145.69;50.82;72835.34;5098253;28;20656;-76
2022/03/04 08:14:07;;;;;;;23.37;10.07;;;;;;;-145.69;51.89;72813.47;5113915;28;20209;-76
2022/03/04 08:16:40;;;;;;;24.67;10.07;;;;;;;-145.69;50.17;72793.56;5114192;28;20292;-77
2022/03/04 08:19:06;;;;;;;26.97;10.50;;;;;;;-145.69;51.70;72767.69;5114187;28;20228;-77
2022/03/04 08:21:43;;;;;;;22.13;10.00;;;;;;;-145.69;49.92;72751.75;5114111;27;20323;-77
2022/03/04 08:24:10;;;;;;;23.27;9.60;;;;;;;-145.69;49.58;72743.78;5106467;28;20612;-77
2022/03/04 08:26:38;;;;;;;26.87;10.27;;;;;;;-145.69;49.67;72729.84;5093967;28;20327;-77
2022/03/04 08:29:05;;;;;;;24.50;9.93;;;;;;;-145.69;48.63;72725.88;5093630;28;20198;-77
2022/03/04 08:31:31;;;;;;;25.67;10.13;;;;;;;-145.69;49.78;72707.97;5093644;28;20202;-78
2022/03/04 08:34:00;;;;;;;27.00;10.37;;;;;;;-145.69;48.92;72698.00;5112250;28;20193;-77
2022/03/04 08:36:29;;;;;;;22.83;10.57;;;;;;;-145.69;50.54;72686.06;5113895;28;20193;-77
2022/03/04 08:39:05;;;;;;;22.93;9.47;;;;;;;-145.69;48.08;72684.06;5113483;28;20202;-78
2022/03/04 08:41:32;;;;;;;24.33;9.67;;;;;;;-145.69;51.38;72664.16;5113658;28;20584;-78
2022/03/04 08:44:01;;;;;;;22.63;9.07;;;;;;;-145.69;50.18;72658.19;5094937;28;20198;-78
2022/03/04 08:46:28;;;;;;;20.13;8.83;;;;;;;-145.69;49.72;72656.22;5093432;28;20560;-78
2022/03/04 08:48:57;;;;;;;18.77;8.67;;;;;;;-145.69;48.96;72652.22;5093459;28;20249;-78
2022/03/04 08:51:27;;;;;;;16.93;8.13;;;;;;;-145.69;49.97;72632.31;5091114;28;20209;-78
2022/03/04 08:53:54;;;;;;;22.60;8.53;;;;;;;-145.69;49.44;72622.38;5074060;28;20221;-78
2022/03/04 08:56:21;;;;;;;16.93;8.23;;;;;;;-145.69;50.32;72626.34;5107002;28;20189;-78
2022/03/04 08:58:50;;;;;;;22.43;8.73;;;;;;;-145.69;49.08;72620.38;5113674;28;20553;-77
2022/03/04 09:01:16;;;;;;;18.90;7.77;;;;;;;-145.69;48.02;72616.41;5111757;28;20312;-78
2022/03/04 09:03:46;;;;;;;19.73;7.87;;;;;;;-145.69;47.22;72622.38;5113257;28;20193;-78
2022/03/04 09:06:20;;;;;;;20.87;7.77;;;;;;;-145.69;46.74;72616.41;5113302;28;20197;-78
2022/03/04 09:08:48;;;;;;;19.33;7.20;;;;;;;-145.69;47.30;72606.44;5098276;28;20204;-78
2022/03/04 09:11:14;;;;;;;17.60;6.93;;;;;;;-145.69;45.84;72610.44;5093211;28;20202;-77
2022/03/04 09:13:41;;;;;;;15.27;7.30;;;;;;;-145.69;48.70;72600.47;5092464;28;20808;-77
2022/03/04 09:16:15;;;;;;;14.93;7.63;;;;;;;-145.69;46.59;72588.53;5093399;28;20202;-78
2022/03/04 09:18:46;;;;;;;17.57;6.67;;;;;;;-145.69;46.54;72564.66;5109964;28;20225;-77
2022/03/04 09:21:13;;;;;;;14.57;6.20;;;;;;;-145.69;45.34;72568.63;5113498;28;20567;-78
2022/03/04 09:23:39;;;;;;;14.67;5.93;;;;;;;-145.69;43.89;72548.72;5113435;28;20664;-76
2022/03/04 09:26:10;;;;;;;15.10;6.30;;;;;;;-145.69;43.89;72536.78;5113095;28;20193;-80
2022/03/04 09:28:37;;;;;;;15.40;6.67;;;;;;;-145.69;44.58;72516.88;5097047;28;20205;-77
2022/03/04 09:31:06;;;;;;;13.77;6.23;;;;;;;-145.69;42.69;72524.84;5093002;28;20282;-76
2022/03/04 09:33:33;;;;;;;12.70;6.33;;;;;;;-145.69;44.20;72508.91;5092872;28;20292;-77
2022/03/04 09:36:02;;;;;;;14.57;6.70;;;;;;;-145.69;42.93;72506.91;5093033;28;20210;-77
2022/03/04 09:38:28;;;;;;;15.10;6.27;;;;;;;-145.69;43.15;72504.94;5093003;28;20202;-76
2022/03/04 09:40:55;;;;;;;12.87;5.87;;;;;;;-145.69;41.13;72506.91;5112170;28;20208;-77
2022/03/04 09:43:27;;;;;;;15.23;6.90;;;;;;;-145.69;43.05;72498.97;5113071;28;20256;-77
2022/03/04 09:45:55;;;;;;;17.80;7.13;;;;;;;-145.69;41.50;72477.06;5113412;28;20198;-77
2022/03/04 09:48:24;;;;;;;16.63;6.67;;;;;;;-145.69;39.68;72479.06;5113368;28;20197;-76
2022/03/04 09:50:58;;;;;;;19.00;7.27;;;;;;;-145.69;40.95;72479.06;5113074;28;20219;-78
2022/03/04 09:53:28;;;;;;;15.63;7.10;;;;;;;-145.69;40.09;72498.97;5092769;28;20201;-77
2022/03/04 09:55:59;;;;;;;15.57;7.13;;;;;;;-145.69;40.78;72500.94;5092758;28;20205;-77
2022/03/04 09:58:27;;;;;;;16.00;7.17;;;;;;;-145.69;40.27;72481.03;5092917;28;20233;-77
2022/03/04 10:00:54;;;;;;;15.63;6.47;;;;;;;-145.69;39.16;72494.97;5092877;28;20198;-77
2022/03/04 10:03:23;;;;;;;14.03;6.80;;;;;;;-145.69;40.47;72493.00;5096111;28;20249;-77
2022/03/04 10:05:56;;;;;;;18.63;7.03;;;;;;;-145.69;38.23;72473.09;5113190;28;20623;-77
2022/03/04 10:08:24;;;;;;;16.73;6.50;;;;;;;-145.69;39.78;72461.13;5101497;28;20338;-77
2022/03/04 10:10:52;;;;;;;21.03;7.20;;;;;;;-145.69;39.11;72449.19;5092478;28;20209;-77
2022/03/04 10:13:45;;;;;;;19.60;7.47;;;;;;;-145.69;38.98;72457.16;5092400;28;20228;-77
2022/03/04 10:16:22;;;;;;;21.77;7.17;;;;;;;-145.69;38.42;72453.19;5094187;28;20208;-77
2022/03/04 10:19:06;;;;;;;19.77;7.57;;;;;;;-145.69;38.01;72479.06;5095858;28;20628;-76
2022/03/04 10:21:49;;;;;;;17.03;6.40;;;;;;;-145.69;39.42;72453.19;5096131;28;20198;-76
2022/03/04 10:24:28;;;;;;;15.90;6.87;;;;;;;-145.69;38.16;72451.19;5096134;28;20208;-77
2022/03/04 10:27:01;;;;;;;15.27;6.50;;;;;;;-145.69;38.46;72441.25;5095530;28;20205;-77
2022/03/04 10:29:34;;;;;;;21.97;7.43;;;;;;;-145.69;37.99;72437.25;5113493;28;20193;-76
2022/03/04 10:32:13;;;;;;;15.83;7.30;;;;;;;-145.69;38.81;72417.34;5116389;28;20205;-77
2022/03/04 10:34:44;;;;;;;18.93;7.17;;;;;;;-145.69;36.67;72423.31;5116362;28;20216;-77
2022/03/04 10:37:21;;;;;;;18.50;6.90;;;;;;;-145.69;37.09;72423.31;5116182;28;20602;-77
2022/03/04 10:40:04;;;;;;;15.37;7.10;;;;;;;-145.69;38.34;72387.50;5110811;28;20626;-78
2022/03/04 10:42:46;;;;;;;18.47;7.20;;;;;;;-145.69;36.92;72411.38;5095585;28;20704;-77
2022/03/04 10:45:20;;;;;;;17.63;7.37;;;;;;;-145.69;36.68;72409.38;5095619;28;20227;-78
2022/03/04 10:48:10;;;;;;;14.77;7.20;;;;;;;-145.69;36.76;72383.53;5095430;28;20198;-78
2022/03/04 10:50:39;;;;;;;15.60;6.13;;;;;;;-145.69;35.21;72411.38;5090258;28;20664;-78
2022/03/04 10:53:09;;;;;;;15.37;7.13;;;;;;;-145.69;36.66;72401.44;5096371;28;20198;-78
2022/03/04 10:55:39;;;;;;;14.53;6.30;;;;;;;-145.69;35.73;72385.50;5095495;28;20684;-79
2022/03/04 10:58:07;;;;;;;16.30;7.03;;;;;;;-145.69;36.04;72375.56;5095595;28;20213;-78
2022/03/04 11:00:37;;;;;;;17.23;6.43;;;;;;;-145.69;36.24;72373.56;5083086;28;20214;-79
2022/03/04 11:03:16;;;;;;;20.10;7.77;;;;;;;-145.69;35.98;72377.53;5085588;28;20217;-79
2022/03/04 11:05:42;;;;;;;18.13;6.73;;;;;;;-145.69;35.25;72373.56;5115867;28;20280;-76
2022/03/04 11:08:10;;;;;;;20.70;7.10;;;;;;;-145.69;36.88;72353.66;5115457;28;20201;-77
2022/03/04 11:10:37;;;;;;;16.90;6.93;;;;;;;-145.69;36.74;72335.75;5115856;28;20202;-77
2022/03/04 11:13:05;;;;;;;17.13;7.33;;;;;;;-145.69;35.62;72349.69;5111119;28;20591;-77
2022/03/04 11:15:33;;;;;;;20.63;7.57;;;;;;;-145.69;35.07;72357.66;5095376;28;20205;-77